| time (UTC) | temp F | wind direction | speed knots | gust knots | rain 1hr in | rain 24hr in | rain mn in | humidity % | barometer mb |
| 20260507181936 | 53 | 0 | 0.0 | 0.0 | 0.00 | 0.00 | 0.00 | 1015.4 | |
| 20260507181436 | 52 | 0 | 0.0 | 0.0 | 0.00 | 0.00 | 0.00 | 1015.0 | |
| 20260507180428 | 52 | 0 | 0.0 | 0.0 | 0.00 | 0.00 | 0.00 | 1014.2 | |
| 20260507175928 | 53 | 0 | 0.0 | 0.0 | 0.00 | 0.00 | 0.00 | 1017.6 | |
| 20260507175424 | 55 | 0 | 0.0 | 0.0 | 0.00 | 0.00 | 0.00 | 1013.2 | |
| 20260507174923 | 54 | 0 | 0.0 | 0.0 | 0.00 | 0.00 | 0.00 | 1013.5 | |
| 20260507174420 | 55 | 0 | 0.0 | 0.0 | 0.00 | 0.00 | 0.00 | 1014.2 | |
| 20260507173920 | 54 | 0 | 0.0 | 0.0 | 0.00 | 0.00 | 0.00 | 1013.0 | |
| 20260507173419 | 54 | 232 | 0.0 | 0.9 | 0.00 | 0.00 | 0.00 | 1012.8 | |
| 20260507172919 | 53 | 229 | 0.0 | 0.9 | 0.00 | 0.00 | 0.00 | 1014.0 | |
| 20260507172418 | 53 | 0 | 0.0 | 0.0 | 0.00 | 0.00 | 0.00 | 1011.4 | |
| 20260507171918 | 55 | 224 | 0.0 | 0.9 | 0.00 | 0.00 | 0.00 | 1015.4 | |
| 20260507171414 | 54 | 214 | 0.0 | 1.7 | 0.00 | 0.00 | 0.00 | 1012.0 | |
| 20260507170914 | 54 | 0 | 0.0 | 0.0 | 0.00 | 0.00 | 0.00 | 1013.7 | |
| 20260507170413 | 54 | 0 | 0.0 | 0.0 | 0.00 | 0.00 | 0.00 | 1014.4 | |
| 20260507165919 | 56 | 56 | 0.0 | 0.0 | 0.00 | 0.00 | 0.00 | 1012.3 | |
| 20260507165412 | 56 | 105 | 0.9 | 2.6 | 0.00 | 0.00 | 0.00 | 1013.4 | |
| 20260507164912 | 55 | 222 | 0.9 | 2.6 | 0.00 | 0.00 | 0.00 | 1014.8 | |
| 20260507164411 | 54 | 242 | 0.0 | 1.7 | 0.00 | 0.00 | 0.00 | 1013.5 | |
| 20260507163911 | 54 | 77 | 0.0 | 2.6 | 0.00 | 0.00 | 0.00 | 1015.5 | |
| 20260507163408 | 54 | 232 | 0.0 | 1.7 | 0.00 | 0.00 | 0.00 | 1016.1 | |
| 20260507162407 | 56 | 127 | 0.9 | 3.5 | 0.00 | 0.00 | 0.00 | 1013.7 | |
| 20260507161907 | 56 | 111 | 2.6 | 5.2 | 0.00 | 0.00 | 0.00 | 1015.2 | |
| 20260507161406 | 56 | 94 | 3.5 | 5.2 | 0.00 | 0.00 | 0.00 | 1013.9 | |
| 20260507160909 | 57 | 94 | 4.3 | 6.1 | 0.00 | 0.00 | 0.00 | 1014.3 | |
| 20260507160405 | 56 | 124 | 4.3 | 6.1 | 0.00 | 0.00 | 0.00 | 1013.7 | |
| 20260507155905 | 57 | 114 | 5.2 | 7.0 | 0.00 | 0.00 | 0.00 | 1017.8 | |
| 20260507155402 | 54 | 96 | 4.3 | 6.1 | 0.00 | 0.00 | 0.00 | 1012.8 | |
| 20260507154902 | 56 | 93 | 2.6 | 5.2 | 0.00 | 0.00 | 0.00 | 1013.6 | |
| 20260507154401 | 57 | 51 | 2.6 | 5.2 | 0.00 | 0.00 | 0.00 | 1013.5 | |
| 20260507153859 | 56 | 72 | 5.2 | 6.1 | 0.00 | 0.00 | 0.00 | 1012.5 | |
| 20260507153359 | 55 | 70 | 4.3 | 7.8 | 0.00 | 0.00 | 0.00 | 1009.9 | |
| 20260507152858 | 56 | 70 | 5.2 | 7.0 | 0.00 | 0.00 | 0.00 | 1015.2 | |
| 20260507152357 | 56 | 75 | 4.3 | 6.1 | 0.00 | 0.00 | 0.00 | 1016.6 | |
| 20260507151856 | 57 | 79 | 6.1 | 7.8 | 0.00 | 0.00 | 0.00 | 1013.3 | |
| 20260507151354 | 56 | 104 | 6.1 | 7.8 | 0.00 | 0.00 | 0.00 | 1020.1 | |
| 20260507150853 | 56 | 62 | 6.1 | 8.7 | 0.00 | 0.00 | 0.00 | 1013.5 | |
| 20260507150353 | 57 | 89 | 2.6 | 7.8 | 0.00 | 0.00 | 0.00 | 1010.8 | |
| 20260507145852 | 56 | 13 | 1.7 | 3.5 | 0.00 | 0.00 | 0.00 | 1016.8 | |
| 20260507145353 | 56 | 31 | 2.6 | 5.2 | 0.00 | 0.00 | 0.00 | 1015.4 | |
| 20260507144851 | 56 | 30 | 1.7 | 5.2 | 0.00 | 0.00 | 0.00 | 1010.1 | |
| 20260507144349 | 55 | 35 | 2.6 | 6.1 | 0.00 | 0.00 | 0.00 | 1016.1 | |
| 20260507143849 | 56 | 27 | 3.5 | 6.1 | 0.00 | 0.00 | 0.00 | 1013.5 | |
| 20260507143348 | 55 | 15 | 4.3 | 6.1 | 0.00 | 0.00 | 0.00 | 1014.4 | |
| 20260507142848 | 55 | 25 | 4.3 | 7.8 | 0.00 | 0.00 | 0.00 | 1007.4 | |
| 20260507142347 | 55 | 346 | 2.6 | 5.2 | 0.00 | 0.00 | 0.00 | 1017.6 | |
| 20260507141847 | 56 | 66 | 3.5 | 7.0 | 0.00 | 0.00 | 0.00 | 1016.6 | |
| 20260507141350 | 57 | 44 | 1.7 | 5.2 | 0.00 | 0.00 | 0.00 | 1012.7 | |
| 20260507140846 | 57 | 281 | 0.0 | 0.9 | 0.00 | 0.00 | 0.00 | 1014.0 | |
| 20260507140345 | 56 | 23 | 1.7 | 4.3 | 0.00 | 0.00 | 0.00 | 1012.9 | |
| 20260507135845 | 57 | 27 | 2.6 | 7.0 | 0.00 | 0.00 | 0.00 | 1017.8 | |
| 20260507135344 | 56 | 38 | 3.5 | 5.2 | 0.00 | 0.00 | 0.00 | 1016.5 | |
| 20260507134837 | 56 | 62 | 4.3 | 6.1 | 0.00 | 0.00 | 0.00 | 1006.4 | |
| 20260507134412 | 57 | 72 | 5.2 | 7.0 | 0.00 | 0.00 | 0.00 | 1010.5 | |
| 20260507134336 | 57 | 72 | 5.2 | 7.0 | 0.00 | 0.00 | 0.00 | 1010.5 | |
| 20260507133835 | 57 | 83 | 1.7 | 6.1 | 0.00 | 0.00 | 0.00 | 1015.5 | |
| 20260507133339 | 57 | 101 | 2.6 | 6.1 | 0.00 | 0.00 | 0.00 | 1015.2 | |
| 20260507132834 | 57 | 52 | 4.3 | 7.8 | 0.00 | 0.00 | 0.00 | 1016.1 | |
| 20260507132332 | 55 | 63 | 3.5 | 6.1 | 0.00 | 0.00 | 0.00 | 1012.7 | |
| 20260507131832 | 56 | 59 | 3.5 | 7.0 | 0.00 | 0.00 | 0.00 | 1018.2 | |
| 20260507131328 | 56 | 11 | 4.3 | 7.0 | 0.00 | 0.00 | 0.00 | 1016.5 | |
| 20260507130828 | 57 | 62 | 3.5 | 8.7 | 0.00 | 0.00 | 0.00 | 1014.9 | |
| 20260507130325 | 56 | 56 | 4.3 | 8.7 | 0.00 | 0.00 | 0.00 | 1014.7 | |
| 20260507125824 | 56 | 359 | 3.5 | 7.0 | 0.00 | 0.00 | 0.00 | 1014.7 | |
| 20260507125323 | 55 | 90 | 4.3 | 6.1 | 0.00 | 0.00 | 0.00 | 1015.7 | |
| 20260507124823 | 56 | 76 | 4.3 | 7.0 | 0.00 | 0.00 | 0.00 | 1013.7 | |
| 20260507124322 | 55 | 63 | 6.1 | 7.8 | 0.00 | 0.00 | 0.00 | 1014.7 | |
| 20260507123822 | 55 | 72 | 6.1 | 7.8 | 0.00 | 0.00 | 0.00 | 1016.9 | |
| 20260507123321 | 54 | 86 | 4.3 | 7.0 | 0.00 | 0.00 | 0.00 | 1010.7 | |
| 20260507122821 | 56 | 72 | 4.3 | 7.8 | 0.00 | 0.00 | 0.00 | 1012.7 | |
| 20260507122319 | 55 | 1 | 2.6 | 5.2 | 0.00 | 0.00 | 0.00 | 1018.7 | |
| 20260507121818 | 54 | 84 | 0.9 | 3.5 | 0.00 | 0.00 | 0.00 | 1013.0 | |
| 20260507121318 | 54 | 86 | 3.5 | 6.1 | 0.00 | 0.00 | 0.00 | 1014.8 | |
| 20260507120821 | 54 | 68 | 5.2 | 7.8 | 0.00 | 0.00 | 0.00 | 1014.6 | |
| 20260507120317 | 55 | 44 | 7.0 | 10.4 | 0.00 | 0.00 | 0.00 | 1026.3 | |
| 20260507115816 | 55 | 90 | 3.5 | 7.0 | 0.00 | 0.00 | 0.00 | 1010.9 | |
| 20260507115316 | 55 | 70 | 4.3 | 7.8 | 0.00 | 0.00 | 0.00 | 1013.5 | |
| 20260507114815 | 55 | 45 | 4.3 | 6.1 | 0.00 | 0.00 | 0.00 | 1016.6 | |
| 20260507114315 | 55 | 55 | 4.3 | 7.8 | 0.00 | 0.00 | 0.00 | 1016.8 | |
| 20260507113814 | 56 | 37 | 5.2 | 8.7 | 0.00 | 0.00 | 0.00 | 1012.2 | |
| 20260507113314 | 55 | 14 | 1.7 | 5.2 | 0.00 | 0.00 | 0.00 | 1011.1 | |
| 20260507112813 | 55 | 243 | 1.7 | 6.1 | 0.00 | 0.00 | 0.00 | 1015.9 | |
| 20260507112311 | 55 | 290 | 1.7 | 5.2 | 0.00 | 0.00 | 0.00 | 1015.3 | |
| 20260507111806 | 56 | 349 | 1.7 | 4.3 | 0.00 | 0.00 | 0.00 | 1009.9 | |
| 20260507111304 | 55 | 329 | 3.5 | 6.1 | 0.00 | 0.00 | 0.00 | 1011.3 | |
| 20260507110804 | 55 | 300 | 1.7 | 5.2 | 0.00 | 0.00 | 0.00 | 1012.0 | |
| 20260507110303 | 55 | 8 | 1.7 | 3.5 | 0.00 | 0.00 | 0.00 | 1015.6 | |
| 20260507105803 | 54 | 353 | 1.7 | 6.1 | 0.00 | 0.00 | 0.00 | 1015.8 | |
| 20260507105306 | 53 | 345 | 2.6 | 5.2 | 0.00 | 0.00 | 0.00 | 1015.3 | |
| 20260507104802 | 54 | 0 | 2.6 | 6.1 | 0.00 | 0.00 | 0.00 | 1012.2 | |
| 20260507104301 | 56 | 325 | 2.6 | 7.0 | 0.00 | 0.00 | 0.00 | 1018.4 | |
| 20260507103800 | 54 | 249 | 1.7 | 5.2 | 0.00 | 0.00 | 0.00 | 1014.8 | |
| 20260507103257 | 54 | 309 | 2.6 | 7.8 | 0.00 | 0.00 | 0.00 | 1016.1 | |
| 20260507102756 | 54 | 307 | 2.6 | 6.1 | 0.00 | 0.00 | 0.00 | 1016.5 | |
| 20260507102256 | 54 | 309 | 2.6 | 7.0 | 0.00 | 0.00 | 0.00 | 1013.3 | |
| 20260507101755 | 54 | 359 | 3.5 | 8.7 | 0.00 | 0.00 | 0.00 | 1012.8 | |
| 20260507100754 | 52 | 333 | 1.7 | 4.3 | 0.00 | 0.00 | 0.00 | 1014.4 | |
| 20260507100250 | 53 | 28 | 1.7 | 4.3 | 0.00 | 0.00 | 0.00 | 1016.5 | |
| 20260507095749 | 53 | 30 | 0.9 | 3.5 | 0.00 | 0.00 | 0.00 | 1015.4 | |
| 20260507095249 | 53 | 290 | 0.9 | 2.6 | 0.00 | 0.00 | 0.00 | 1019.4 | |
| 20260507094245 | 52 | 329 | 1.7 | 3.5 | 0.00 | 0.00 | 0.00 | 1018.3 | |
| 20260507093745 | 52 | 339 | 2.6 | 4.3 | 0.00 | 0.00 | 0.00 | 1016.5 | |
| 20260507093244 | 53 | 350 | 1.7 | 4.3 | 0.00 | 0.00 | 0.00 | 1010.3 | |
| 20260507092744 | 52 | 326 | 2.6 | 7.0 | 0.00 | 0.00 | 0.00 | 1014.4 | |
| 20260507092243 | 53 | 294 | 2.6 | 6.1 | 0.00 | 0.00 | 0.00 | 1014.9 | |
| 20260507091743 | 52 | 356 | 2.6 | 6.1 | 0.00 | 0.00 | 0.00 | 1019.3 | |
| 20260507091242 | 53 | 359 | 2.6 | 6.1 | 0.00 | 0.00 | 0.00 | 1013.6 | |
| 20260507090740 | 53 | 335 | 2.6 | 6.1 | 0.00 | 0.00 | 0.00 | 1011.3 | |
| 20260507090240 | 54 | 319 | 1.7 | 4.3 | 0.00 | 0.00 | 0.00 | 1016.1 | |
| 20260507085739 | 52 | 314 | 0.9 | 4.3 | 0.00 | 0.00 | 0.00 | 1015.5 | |
| 20260507085239 | 52 | 245 | 0.9 | 4.3 | 0.00 | 0.00 | 0.00 | 1013.9 | |
| 20260507084735 | 52 | 245 | 2.6 | 5.2 | 0.00 | 0.00 | 0.00 | 1016.2 | |
| 20260507084234 | 52 | 323 | 1.7 | 6.1 | 0.00 | 0.00 | 0.00 | 1016.4 | |
| 20260507083233 | 53 | 3 | 0.9 | 5.2 | 0.00 | 0.00 | 0.00 | 1011.9 | |
| 20260507082732 | 52 | 326 | 0.9 | 4.3 | 0.00 | 0.00 | 0.00 | 1012.9 | |
| 20260507082232 | 52 | 253 | 2.6 | 5.2 | 0.00 | 0.00 | 0.00 | 1016.1 | |
| 20260507081734 | 51 | 347 | 0.9 | 3.5 | 0.00 | 0.00 | 0.00 | 1015.9 | |
| 20260507081230 | 51 | 335 | 2.6 | 5.2 | 0.00 | 0.00 | 0.00 | 1011.4 | |
| 20260507080729 | 51 | 340 | 1.7 | 3.5 | 0.00 | 0.00 | 0.00 | 1014.8 | |
| 20260507080227 | 51 | 309 | 0.0 | 2.6 | 0.00 | 0.00 | 0.00 | 1011.8 | |
| 20260507075726 | 51 | 76 | 1.7 | 2.6 | 0.00 | 0.00 | 0.00 | 1013.3 | |
| 20260507075226 | 52 | 35 | 0.9 | 2.6 | 0.00 | 0.00 | 0.00 | 1016.6 | |
| 20260507074725 | 51 | 75 | 1.7 | 4.3 | 0.00 | 0.00 | 0.00 | 1009.8 | |
| 20260507074225 | 52 | 352 | 0.9 | 3.5 | 0.00 | 0.00 | 0.00 | 1014.3 | |
| 20260507073224 | 50 | 69 | 2.6 | 4.3 | 0.00 | 0.00 | 0.00 | 1016.9 | |
| 20260507072722 | 51 | 82 | 3.5 | 4.3 | 0.00 | 0.00 | 0.00 | 1011.5 | |
| 20260507072221 | 52 | 39 | 0.9 | 3.5 | 0.00 | 0.00 | 0.00 | 1013.7 | |
| 20260507071721 | 50 | 55 | 2.6 | 5.2 | 0.00 | 0.00 | 0.00 | 1012.7 | |
| 20260507071219 | 50 | 38 | 0.9 | 2.6 | 0.00 | 0.00 | 0.00 | 1016.8 | |
| 20260507070719 | 50 | 10 | 0.9 | 2.6 | 0.00 | 0.00 | 0.00 | 1010.3 | |
| 20260507070218 | 50 | 0 | 0.0 | 0.0 | 0.00 | 0.00 | 0.00 | 1014.8 | |
| 20260507065719 | 49 | 31 | 0.9 | 2.6 | 0.00 | 0.00 | 0.00 | 1011.6 | |
| 20260507065217 | 51 | 31 | 1.7 | 3.5 | 0.00 | 0.00 | 0.00 | 1011.5 | |
| 20260507064717 | 50 | 1 | 1.7 | 4.3 | 0.00 | 0.00 | 0.00 | 1014.0 | |
| 20260507064217 | 51 | 4 | 0.9 | 2.6 | 0.00 | 0.00 | 0.00 | 1012.4 | |
| 20260507063716 | 50 | 0 | 0.0 | 0.0 | 0.00 | 0.00 | 0.00 | 1012.3 | |
| 20260507063216 | 51 | 14 | 0.0 | 1.7 | 0.00 | 0.00 | 0.00 | 1012.2 | |
| 20260507062715 | 51 | 60 | 0.9 | 2.6 | 0.00 | 0.00 | 0.00 | 1014.8 | |
| 20260507062214 | 49 | 39 | 0.0 | 2.6 | 0.00 | 0.00 | 0.00 | 1011.3 | |
| 20260507061713 | 50 | 336 | 0.0 | 0.9 | 0.00 | 0.00 | 0.00 | 1012.8 | |
| 20260507061213 | 51 | 290 | 0.9 | 2.6 | 0.00 | 0.00 | 0.00 | 1012.7 | |
| 20260507060712 | 51 | 228 | 0.9 | 4.3 | 0.00 | 0.00 | 0.00 | 1016.6 | |
| 20260507060212 | 51 | 229 | 3.5 | 6.1 | 0.00 | 0.00 | 0.00 | 1013.7 | |
| 20260507055713 | 49 | 219 | 0.0 | 2.6 | 0.00 | 0.00 | 0.00 | 1013.9 | |
| 20260507055211 | 49 | 233 | 0.0 | 1.7 | 0.00 | 0.00 | 0.00 | 1012.2 | |
| 20260507054710 | 49 | 0 | 0.0 | 0.0 | 0.00 | 0.00 | 0.00 | 1015.0 | |
| 20260507054210 | 48 | 0 | 0.0 | 0.0 | 0.00 | 0.00 | 0.00 | 1011.4 | |
| 20260507053709 | 50 | 0 | 0.0 | 0.0 | 0.00 | 0.00 | 0.00 | 1011.8 | |
| 20260507053209 | 47 | 0 | 0.0 | 0.0 | 0.00 | 0.00 | 0.00 | 1015.3 | |
| 20260507052708 | 49 | 0 | 0.0 | 0.0 | 0.00 | 0.00 | 0.00 | 1013.9 | |
| 20260507052208 | 48 | 0 | 0.0 | 0.0 | 0.00 | 0.00 | 0.00 | 1012.2 | |
| 20260507051707 | 49 | 0 | 0.0 | 0.0 | 0.00 | 0.00 | 0.00 | 1013.2 | |
| 20260507051207 | 49 | 0 | 0.0 | 0.0 | 0.00 | 0.00 | 0.00 | 1015.4 | |
| 20260507050706 | 49 | 0 | 0.0 | 0.0 | 0.00 | 0.00 | 0.00 | 1010.8 | |
| 20260507050206 | 49 | 0 | 0.0 | 0.0 | 0.00 | 0.00 | 0.00 | 1011.3 | |
| 20260507045705 | 48 | 0 | 0.0 | 0.0 | 0.00 | 0.00 | 0.00 | 1015.6 | |
| 20260507045205 | 49 | 0 | 0.0 | 0.0 | 0.00 | 0.00 | 0.00 | 1014.2 | |
| 20260507044704 | 50 | 0 | 0.0 | 0.0 | 0.00 | 0.00 | 0.00 | 1012.2 | |
| 20260507044204 | 48 | 225 | 0.0 | 1.7 | 0.00 | 0.00 | 0.00 | 1011.9 | |
| 20260507043703 | 48 | 0 | 0.0 | 0.0 | 0.00 | 0.00 | 0.00 | 1010.1 | |
| 20260507043245 | 48 | 0 | 0.0 | 0.0 | 0.00 | 0.00 | 0.00 | 1013.2 | |
| 20260507043203 | 48 | 0 | 0.0 | 0.0 | 0.00 | 0.00 | 0.00 | 1013.2 | |
| 20260507042702 | 49 | 0 | 0.0 | 0.0 | 0.00 | 0.00 | 0.00 | 1013.3 | |
| 20260507042202 | 48 | 0 | 0.0 | 0.0 | 0.00 | 0.00 | 0.00 | 1010.7 | |
| 20260507041701 | 48 | 232 | 0.0 | 1.7 | 0.00 | 0.00 | 0.00 | 1011.4 | |
| 20260507041201 | 50 | 0 | 0.0 | 0.0 | 0.00 | 0.00 | 0.00 | 1013.2 | |
| 20260507040657 | 48 | 0 | 0.0 | 0.0 | 0.00 | 0.00 | 0.00 | 1012.3 | |
| 20260507040156 | 48 | 263 | 0.0 | 2.6 | 0.00 | 0.00 | 0.00 | 1014.8 | |
| 20260507035656 | 49 | 228 | 0.9 | 3.5 | 0.00 | 0.00 | 0.00 | 1013.3 | |
| 20260507035155 | 48 | 231 | 2.6 | 4.3 | 0.00 | 0.00 | 0.00 | 1016.5 | |
| 20260507034654 | 49 | 215 | 4.3 | 6.1 | 0.00 | 0.00 | 0.00 | 1010.7 | |
| 20260507034152 | 49 | 221 | 4.3 | 7.0 | 0.00 | 0.00 | 0.00 | 1010.9 | |
| 20260507033844 | 49 | 235 | 4.3 | 7.0 | 0.00 | 0.00 | 0.00 | 1012.0 | |
| 20260507033652 | 49 | 235 | 4.3 | 7.0 | 0.00 | 0.00 | 0.00 | 1012.0 | |
| 20260507033151 | 50 | 253 | 5.2 | 9.6 | 0.00 | 0.00 | 0.00 | 1009.9 | |
| 20260507032651 | 50 | 225 | 6.1 | 8.7 | 0.00 | 0.00 | 0.00 | 1009.5 | |
| 20260507032150 | 49 | 225 | 6.1 | 10.4 | 0.00 | 0.00 | 0.00 | 1011.0 | |
| 20260507031652 | 49 | 228 | 7.0 | 10.4 | 0.00 | 0.00 | 0.00 | 1012.0 | |
| 20260507030649 | 47 | 224 | 7.0 | 11.3 | 0.00 | 0.00 | 0.00 | 1007.9 | |
| 20260507030148 | 48 | 211 | 7.0 | 11.3 | 0.00 | 0.00 | 0.00 | 1006.7 | |
| 20260507025648 | 49 | 200 | 6.1 | 9.6 | 0.00 | 0.00 | 0.00 | 1011.8 | |
| 20260507025147 | 49 | 215 | 7.0 | 13.0 | 0.00 | 0.00 | 0.00 | 1021.4 | |
| 20260507024647 | 48 | 203 | 7.0 | 13.0 | 0.00 | 0.00 | 0.00 | 1014.7 | |
| 20260507024146 | 48 | 239 | 7.8 | 13.9 | 0.00 | 0.00 | 0.00 | 1008.5 | |
| 20260507023646 | 48 | 233 | 7.0 | 12.2 | 0.00 | 0.00 | 0.00 | 1010.9 | |
| 20260507023145 | 48 | 248 | 7.8 | 13.0 | 0.00 | 0.00 | 0.00 | 1011.8 | |
| 20260507022645 | 49 | 240 | 7.8 | 13.9 | 0.00 | 0.00 | 0.00 | 1013.9 | |
| 20260507022144 | 48 | 246 | 7.0 | 15.6 | 0.00 | 0.00 | 0.00 | 1013.7 | |
| 20260507021644 | 49 | 238 | 8.7 | 14.8 | 0.00 | 0.00 | 0.00 | 1015.9 | |
| 20260507021143 | 49 | 236 | 9.6 | 16.5 | 0.00 | 0.00 | 0.00 | 1000.8 | |
| 20260507020644 | 50 | 243 | 7.8 | 14.8 | 0.00 | 0.00 | 0.00 | 1014.7 | |
| 20260507020142 | 50 | 201 | 7.0 | 13.0 | 0.00 | 0.00 | 0.00 | 1011.3 | |
| 20260507015642 | 47 | 242 | 7.0 | 10.4 | 0.00 | 0.00 | 0.00 | 1010.0 | |
| 20260507015142 | 50 | 226 | 5.2 | 11.3 | 0.00 | 0.00 | 0.00 | 1008.5 | |
| 20260507014641 | 49 | 233 | 5.2 | 10.4 | 0.00 | 0.00 | 0.00 | 1014.7 | |
| 20260507014141 | 49 | 253 | 4.3 | 8.7 | 0.00 | 0.00 | 0.00 | 1009.5 | |
| 20260507013640 | 50 | 250 | 5.2 | 7.8 | 0.00 | 0.00 | 0.00 | 1017.2 | |
| 20260507013139 | 50 | 225 | 2.6 | 5.2 | 0.00 | 0.00 | 0.00 | 1012.9 | |
| 20260507012639 | 49 | 235 | 5.2 | 9.6 | 0.00 | 0.00 | 0.00 | 1009.1 | |
| 20260507012138 | 49 | 210 | 3.5 | 9.6 | 0.00 | 0.00 | 0.00 | 1009.8 | |
| 20260507011638 | 50 | 219 | 2.6 | 6.1 | 0.00 | 0.00 | 0.00 | 1015.7 | |
| 20260507011137 | 50 | 238 | 5.2 | 8.7 | 0.00 | 0.00 | 0.00 | 1012.2 | |
| 20260507010636 | 49 | 228 | 5.2 | 8.7 | 0.00 | 0.00 | 0.00 | 1016.6 | |
| 20260507010135 | 49 | 243 | 5.2 | 8.7 | 0.00 | 0.00 | 0.00 | 1010.3 | |
| 20260507005635 | 49 | 246 | 3.5 | 10.4 | 0.00 | 0.00 | 0.00 | 1011.9 | |
| 20260507005134 | 50 | 233 | 2.6 | 4.3 | 0.00 | 0.00 | 0.00 | 1010.4 | |
| 20260507004634 | 50 | 242 | 3.5 | 6.1 | 0.00 | 0.00 | 0.00 | 1011.9 | |
| 20260507004133 | 50 | 232 | 5.2 | 12.2 | 0.00 | 0.00 | 0.00 | 1010.3 | |
| 20260507003633 | 49 | 246 | 4.3 | 8.7 | 0.00 | 0.00 | 0.00 | 1015.7 | |
| 20260507003132 | 50 | 249 | 5.2 | 7.8 | 0.00 | 0.00 | 0.00 | 1012.9 | |
| 20260507002632 | 50 | 242 | 3.5 | 6.1 | 0.00 | 0.00 | 0.00 | 1010.8 | |
| 20260507002131 | 48 | 232 | 2.6 | 5.2 | 0.00 | 0.00 | 0.00 | 1013.7 | |
| 20260507001631 | 48 | 232 | 1.7 | 4.3 | 0.00 | 0.00 | 0.00 | 1015.6 | |
| 20260507001130 | 49 | 231 | 0.9 | 4.3 | 0.00 | 0.00 | 0.00 | 1012.3 | |
| 20260507000630 | 49 | 242 | 1.7 | 5.2 | 0.00 | 0.00 | 0.00 | 1014.4 | |
| 20260507000129 | 49 | 233 | 0.9 | 3.5 | 0.00 | 0.00 | 0.00 | 1011.8 | |
| 20260506235628 | 50 | 242 | 2.6 | 5.2 | 0.00 | 0.00 | 0.00 | 1010.5 | |
| 20260506235127 | 49 | 229 | 3.5 | 7.0 | 0.00 | 0.00 | 0.00 | 1008.6 | |
| 20260506234627 | 50 | 233 | 3.5 | 6.1 | 0.00 | 0.00 | 0.00 | 1014.9 | |
| 20260506234126 | 50 | 226 | 2.6 | 6.1 | 0.00 | 0.00 | 0.00 | 1010.0 | |
| 20260506233625 | 51 | 228 | 3.5 | 6.1 | 0.00 | 0.00 | 0.00 | 1015.3 | |
| 20260506233124 | 50 | 224 | 2.6 | 6.1 | 0.00 | 0.00 | 0.00 | 1009.5 | |
| 20260506232624 | 51 | 243 | 5.2 | 8.7 | 0.00 | 0.00 | 0.00 | 1009.6 | |
| 20260506232123 | 48 | 245 | 4.3 | 8.7 | 0.00 | 0.00 | 0.00 | 1011.0 | |
| 20260506231623 | 50 | 224 | 3.5 | 6.1 | 0.00 | 0.00 | 0.00 | 1009.1 | |
| 20260506231122 | 49 | 224 | 4.3 | 8.7 | 0.00 | 0.00 | 0.00 | 1013.6 | |
| 20260506230622 | 49 | 224 | 5.2 | 8.7 | 0.00 | 0.00 | 0.00 | 1012.8 | |
| 20260506230120 | 50 | 238 | 5.2 | 11.3 | 0.00 | 0.00 | 0.00 | 1008.8 | |
| 20260506225618 | 50 | 228 | 6.1 | 12.2 | 0.00 | 0.00 | 0.00 | 1008.7 | |
| 20260506225117 | 49 | 235 | 6.1 | 13.9 | 0.00 | 0.00 | 0.00 | 1009.5 | |
| 20260506224614 | 49 | 217 | 6.1 | 11.3 | 0.00 | 0.00 | 0.00 | 1013.6 | |
| 20260506224114 | 49 | 225 | 6.1 | 11.3 | 0.00 | 0.00 | 0.00 | 1008.6 | |
| 20260506223613 | 51 | 233 | 6.1 | 10.4 | 0.00 | 0.00 | 0.00 | 1017.4 | |
| 20260506223113 | 50 | 233 | 6.1 | 11.3 | 0.00 | 0.00 | 0.00 | 1009.0 | |
| 20260506222611 | 49 | 236 | 6.1 | 12.2 | 0.00 | 0.00 | 0.00 | 1015.9 | |
| 20260506222113 | 49 | 231 | 6.1 | 10.4 | 0.00 | 0.00 | 0.00 | 1004.4 | |
| 20260506221610 | 49 | 229 | 7.0 | 13.0 | 0.00 | 0.00 | 0.00 | 1009.7 | |
| 20260506221110 | 49 | 226 | 5.2 | 10.4 | 0.00 | 0.00 | 0.00 | 1013.2 | |
| 20260506220610 | 50 | 240 | 7.0 | 14.8 | 0.00 | 0.00 | 0.00 | 1012.6 | |
| 20260506220107 | 50 | 232 | 7.8 | 12.2 | 0.00 | 0.00 | 0.00 | 1010.9 | |
| 20260506215605 | 49 | 240 | 6.1 | 13.0 | 0.00 | 0.00 | 0.00 | 1017.4 | |
| 20260506215105 | 49 | 232 | 7.0 | 13.0 | 0.00 | 0.00 | 0.00 | 1007.0 | |
| 20260506214604 | 49 | 229 | 5.2 | 9.6 | 0.00 | 0.00 | 0.38 | 1010.1 | |
| 20260506214104 | 51 | 229 | 7.0 | 13.0 | 0.00 | 0.00 | 0.38 | 1009.0 | |
| 20260506213603 | 49 | 238 | 5.2 | 9.6 | 0.00 | 0.00 | 0.38 | 1012.4 | |
| 20260506213103 | 52 | 242 | 5.2 | 8.7 | 0.00 | 0.00 | 0.38 | 1013.8 | |
| 20260506212602 | 51 | 222 | 5.2 | 9.6 | 0.00 | 0.00 | 0.38 | 1010.3 | |
| 20260506212102 | 51 | 225 | 5.2 | 8.7 | 0.00 | 0.00 | 0.38 | 1013.4 | |
| 20260506211602 | 50 | 240 | 5.2 | 8.7 | 0.00 | 0.00 | 0.38 | 1011.7 | |
| 20260506211100 | 51 | 224 | 5.2 | 7.8 | 0.00 | 0.00 | 0.38 | 1009.4 | |
| 20260506210059 | 50 | 239 | 6.1 | 9.6 | 0.00 | 0.00 | 0.38 | 1010.7 | |
| 20260506205558 | 51 | 236 | 5.2 | 9.6 | 0.00 | 0.00 | 0.38 | 1011.5 | |
| 20260506205058 | 49 | 245 | 7.0 | 12.2 | 0.00 | 0.00 | 0.38 | 1014.5 | |
| 20260506204557 | 49 | 235 | 6.1 | 9.6 | 0.00 | 0.00 | 0.38 | 1010.7 | |
| 20260506204057 | 49 | 228 | 4.3 | 7.0 | 0.00 | 0.00 | 0.38 | 1013.6 | |
| 20260506203556 | 51 | 226 | 5.2 | 8.7 | 0.00 | 0.00 | 0.38 | 1012.8 | |
| 20260506203056 | 51 | 225 | 4.3 | 7.0 | 0.00 | 0.00 | 0.38 | 1010.0 | |
| 20260506202555 | 51 | 228 | 4.3 | 8.7 | 0.00 | 0.00 | 0.38 | 1010.8 | |
| 20260506202055 | 50 | 256 | 3.5 | 7.8 | 0.00 | 0.00 | 0.38 | 1014.5 | |
| 20260506201554 | 50 | 236 | 4.3 | 7.8 | 0.00 | 0.00 | 0.38 | 1013.6 | |
| 20260506201054 | 49 | 233 | 5.2 | 8.7 | 0.00 | 0.00 | 0.38 | 1012.4 | |
| 20260506200554 | 50 | 222 | 4.3 | 9.6 | 0.00 | 0.00 | 0.38 | 1009.8 | |
| 20260506200053 | 51 | 233 | 2.6 | 5.2 | 0.00 | 0.00 | 0.38 | 1014.9 | |
| 20260506195552 | 50 | 228 | 1.7 | 5.2 | 0.00 | 0.00 | 0.38 | 1013.6 | |
| 20260506195052 | 50 | 243 | 2.6 | 5.2 | 0.00 | 0.00 | 0.38 | 1009.1 | |
| 20260506194551 | 49 | 228 | 0.9 | 2.6 | 0.00 | 0.00 | 0.38 | 1009.4 | |
| 20260506194051 | 50 | 231 | 0.0 | 1.7 | 0.00 | 0.00 | 0.38 | 1008.8 | |
| 20260506193550 | 50 | 0 | 0.0 | 0.0 | 0.00 | 0.00 | 0.38 | 1009.9 | |
| 20260506193050 | 50 | 283 | 0.0 | 1.7 | 0.00 | 0.00 | 0.38 | 1010.4 | |
| 20260506192549 | 49 | 231 | 0.9 | 3.5 | 0.00 | 0.00 | 0.38 | 1011.4 | |
| 20260506192049 | 51 | 0 | 0.0 | 0.0 | 0.00 | 0.00 | 0.38 | 1008.4 | |
| 20260506191549 | 50 | 0 | 0.0 | 0.0 | 0.00 | 0.00 | 0.38 | 1009.3 | |
| 20260506191048 | 50 | 0 | 0.0 | 0.0 | 0.00 | 0.00 | 0.38 | 1010.7 | |
| 20260506190547 | 51 | 238 | 0.0 | 0.9 | 0.00 | 0.00 | 0.38 | 1010.5 | |
| 20260506190047 | 50 | 243 | 0.9 | 2.6 | 0.00 | 0.00 | 0.38 | 1011.1 | |
| 20260506185546 | 50 | 231 | 0.9 | 3.5 | 0.00 | 0.00 | 0.38 | 1009.9 | |
| 20260506185046 | 50 | 229 | 1.7 | 3.5 | 0.00 | 0.00 | 0.38 | 1012.7 | |
| 20260506184546 | 49 | 224 | 0.9 | 2.6 | 0.00 | 0.00 | 0.38 | 1007.2 | |
| 20260506184045 | 51 | 228 | 0.9 | 1.7 | 0.00 | 0.00 | 0.38 | 1011.1 | |
| 20260506183545 | 50 | 224 | 0.9 | 2.6 | 0.00 | 0.00 | 0.38 | 1010.7 | |
| 20260506183044 | 52 | 0 | 0.0 | 0.0 | 0.00 | 0.00 | 0.38 | 1010.6 | |
| 20260506182544 | 51 | 229 | 0.0 | 1.7 | 0.00 | 0.00 | 0.38 | 1008.8 | |
| 20260506182043 | 50 | 0 | 0.0 | 0.0 | 0.00 | 0.00 | 0.38 | 1006.7 |